sensor_id;sensor_type;location;lat;lon;timestamp;pressure;altitude;pressure_sealevel;temperature;humidity
40075;BME280;26529;51.530;11.754;2023-03-14T00:00:32;97782.97;;;19.51;45.67
40075;BME280;26529;51.530;11.754;2023-03-14T00:02:57;97786.47;;;19.51;45.68
40075;BME280;26529;51.530;11.754;2023-03-14T00:05:23;97790.78;;;19.52;45.65
40075;BME280;26529;51.530;11.754;2023-03-14T00:07:49;97785.63;;;19.51;45.56
40075;BME280;26529;51.530;11.754;2023-03-14T00:10:15;97789.97;;;19.52;45.49
40075;BME280;26529;51.530;11.754;2023-03-14T00:12:41;97788.97;;;19.53;45.64
40075;BME280;26529;51.530;11.754;2023-03-14T00:15:07;97794.44;;;19.51;45.47
40075;BME280;26529;51.530;11.754;2023-03-14T00:17:34;97776.84;;;19.50;45.49
40075;BME280;26529;51.530;11.754;2023-03-14T00:20:00;97784.66;;;19.52;45.49
40075;BME280;26529;51.530;11.754;2023-03-14T00:22:40;97801.75;;;19.49;45.69
40075;BME280;26529;51.530;11.754;2023-03-14T00:25:08;97824.53;;;19.52;45.54
40075;BME280;26529;51.530;11.754;2023-03-14T00:27:34;97836.97;;;19.51;45.54
40075;BME280;26529;51.530;11.754;2023-03-14T00:30:00;97822.03;;;19.50;45.53
40075;BME280;26529;51.530;11.754;2023-03-14T00:32:26;97823.03;;;19.49;45.67
40075;BME280;26529;51.530;11.754;2023-03-14T00:34:52;97822.16;;;19.49;45.63
40075;BME280;26529;51.530;11.754;2023-03-14T00:37:18;97814.34;;;19.47;45.73
40075;BME280;26529;51.530;11.754;2023-03-14T00:39:43;97815.03;;;19.49;45.47
40075;BME280;26529;51.530;11.754;2023-03-14T00:42:08;97835.63;;;19.47;45.64
40075;BME280;26529;51.530;11.754;2023-03-14T00:44:34;97824.97;;;19.47;45.75
40075;BME280;26529;51.530;11.754;2023-03-14T00:47:00;97812.38;;;19.49;45.49
40075;BME280;26529;51.530;11.754;2023-03-14T00:49:25;97837.31;;;19.48;45.57
40075;BME280;26529;51.530;11.754;2023-03-14T00:51:51;97846.94;;;19.49;45.58
40075;BME280;26529;51.530;11.754;2023-03-14T00:54:17;97869.19;;;19.48;45.63
40075;BME280;26529;51.530;11.754;2023-03-14T00:56:43;97871.84;;;19.48;45.62
40075;BME280;26529;51.530;11.754;2023-03-14T00:59:09;97862.19;;;19.47;45.61
40075;BME280;26529;51.530;11.754;2023-03-14T01:01:34;97869.19;;;19.48;45.60
40075;BME280;26529;51.530;11.754;2023-03-14T01:04:00;97870.16;;;19.47;45.64
40075;BME280;26529;51.530;11.754;2023-03-14T01:06:27;97874.50;;;19.48;45.53
40075;BME280;26529;51.530;11.754;2023-03-14T01:08:53;97881.50;;;19.49;45.50
40075;BME280;26529;51.530;11.754;2023-03-14T01:11:26;97872.00;;;19.47;45.51
40075;BME280;26529;51.530;11.754;2023-03-14T01:13:53;97878.13;;;19.47;45.64
40075;BME280;26529;51.530;11.754;2023-03-14T01:16:20;97878.97;;;19.48;45.44
40075;BME280;26529;51.530;11.754;2023-03-14T01:18:47;97868.19;;;19.49;45.60
40075;BME280;26529;51.530;11.754;2023-03-14T01:21:23;97863.88;;;19.48;45.50
40075;BME280;26529;51.530;11.754;2023-03-14T01:23:51;97873.66;;;19.48;45.53
40075;BME280;26529;51.530;11.754;2023-03-14T01:26:21;97849.09;;;19.46;45.57
40075;BME280;26529;51.530;11.754;2023-03-14T01:28:49;97846.56;;;19.44;45.69
40075;BME280;26529;51.530;11.754;2023-03-14T01:31:16;97860.53;;;19.46;45.44
40075;BME280;26529;51.530;11.754;2023-03-14T01:33:42;97870.34;;;19.46;45.57
40075;BME280;26529;51.530;11.754;2023-03-14T01:36:09;97861.53;;;19.45;45.59
40075;BME280;26529;51.530;11.754;2023-03-14T01:38:37;97853.56;;;19.45;45.43
40075;BME280;26529;51.530;11.754;2023-03-14T01:41:04;97850.75;;;19.47;45.45
40075;BME280;26529;51.530;11.754;2023-03-14T01:43:30;97843.25;;;19.42;45.64
40075;BME280;26529;51.530;11.754;2023-03-14T01:48:59;97827.97;;;19.44;45.48
40075;BME280;26529;51.530;11.754;2023-03-14T01:51:32;97834.28;;;19.43;45.56
40075;BME280;26529;51.530;11.754;2023-03-14T01:54:05;97827.97;;;19.44;45.59
40075;BME280;26529;51.530;11.754;2023-03-14T01:56:32;97831.44;;;19.45;45.62
40075;BME280;26529;51.530;11.754;2023-03-14T01:58:59;97825.31;;;19.44;45.59
40075;BME280;26529;51.530;11.754;2023-03-14T02:01:26;97822.00;;;19.42;45.58
40075;BME280;26529;51.530;11.754;2023-03-14T02:03:55;97828.63;;;19.46;45.39
40075;BME280;26529;51.530;11.754;2023-03-14T02:06:39;97823.31;;;19.46;45.47
40075;BME280;26529;51.530;11.754;2023-03-14T02:09:05;97816.34;;;19.45;45.52
40075;BME280;26529;51.530;11.754;2023-03-14T02:11:34;97805.72;;;19.45;45.59
40075;BME280;26529;51.530;11.754;2023-03-14T02:14:20;97804.06;;;19.44;45.71
40075;BME280;26529;51.530;11.754;2023-03-14T02:16:58;97801.56;;;19.43;45.56
40075;BME280;26529;51.530;11.754;2023-03-14T02:20:13;97793.44;;;19.44;45.53
40075;BME280;26529;51.530;11.754;2023-03-14T02:22:45;97792.56;;;19.44;45.65
40075;BME280;26529;51.530;11.754;2023-03-14T02:25:33;97789.91;;;19.44;45.64
40075;BME280;26529;51.530;11.754;2023-03-14T02:28:04;97798.75;;;19.44;45.46
40075;BME280;26529;51.530;11.754;2023-03-14T02:30:31;97798.91;;;19.43;45.47
40075;BME280;26529;51.530;11.754;2023-03-14T02:35:39;97804.06;;;19.44;45.56
40075;BME280;26529;51.530;11.754;2023-03-14T02:38:19;97805.19;;;19.42;45.43
40075;BME280;26529;51.530;11.754;2023-03-14T02:40:48;97811.38;;;19.42;45.60
40075;BME280;26529;51.530;11.754;2023-03-14T02:43:14;97806.88;;;19.43;45.77
40075;BME280;26529;51.530;11.754;2023-03-14T02:45:49;97814.03;;;19.42;45.59
40075;BME280;26529;51.530;11.754;2023-03-14T02:48:25;97805.19;;;19.42;45.69
40075;BME280;26529;51.530;11.754;2023-03-14T02:50:54;97807.88;;;19.42;45.74
40075;BME280;26529;51.530;11.754;2023-03-14T02:53:24;97798.06;;;19.42;45.52
40075;BME280;26529;51.530;11.754;2023-03-14T02:55:53;97801.03;;;19.39;45.68
40075;BME280;26529;51.530;11.754;2023-03-14T02:58:21;97807.88;;;19.42;45.60
40075;BME280;26529;51.530;11.754;2023-03-14T03:00:51;97813.84;;;19.44;45.45
40075;BME280;26529;51.530;11.754;2023-03-14T03:03:17;97819.50;;;19.41;45.64
40075;BME280;26529;51.530;11.754;2023-03-14T03:05:42;97821.31;;;19.40;45.74
40075;BME280;26529;51.530;11.754;2023-03-14T03:08:09;97838.91;;;19.41;45.60
40075;BME280;26529;51.530;11.754;2023-03-14T03:10:36;97809.69;;;19.41;45.63
40075;BME280;26529;51.530;11.754;2023-03-14T03:13:01;97814.16;;;19.41;45.55
40075;BME280;26529;51.530;11.754;2023-03-14T03:15:27;97806.88;;;19.43;45.46
40075;BME280;26529;51.530;11.754;2023-03-14T03:17:53;97795.41;;;19.42;45.64
40075;BME280;26529;51.530;11.754;2023-03-14T03:20:19;97800.72;;;19.42;45.50
40075;BME280;26529;51.530;11.754;2023-03-14T03:22:45;97796.56;;;19.39;45.56
40075;BME280;26529;51.530;11.754;2023-03-14T03:25:10;97797.38;;;19.40;45.67
40075;BME280;26529;51.530;11.754;2023-03-14T03:27:36;97789.25;;;19.42;45.67
40075;BME280;26529;51.530;11.754;2023-03-14T03:30:05;97786.75;;;19.40;45.59
40075;BME280;26529;51.530;11.754;2023-03-14T03:32:32;97773.66;;;19.38;45.59
40075;BME280;26529;51.530;11.754;2023-03-14T03:34:58;97781.44;;;19.40;45.42
40075;BME280;26529;51.530;11.754;2023-03-14T03:37:24;97768.16;;;19.40;45.42
40075;BME280;26529;51.530;11.754;2023-03-14T03:39:50;97771.16;;;19.37;45.53
40075;BME280;26529;51.530;11.754;2023-03-14T03:42:17;97765.50;;;19.40;45.32
40075;BME280;26529;51.530;11.754;2023-03-14T03:44:42;97770.16;;;19.38;45.49
40075;BME280;26529;51.530;11.754;2023-03-14T03:47:09;97773.66;;;19.38;45.61
40075;BME280;26529;51.530;11.754;2023-03-14T03:49:35;97767.50;;;19.38;45.61
40075;BME280;26529;51.530;11.754;2023-03-14T03:52:01;97758.53;;;19.39;45.54
40075;BME280;26529;51.530;11.754;2023-03-14T03:54:27;97758.53;;;19.39;45.55
40075;BME280;26529;51.530;11.754;2023-03-14T03:56:54;97772.81;;;19.38;45.42
40075;BME280;26529;51.530;11.754;2023-03-14T03:59:20;97767.16;;;19.41;45.47
40075;BME280;26529;51.530;11.754;2023-03-14T04:01:46;97767.50;;;19.38;45.72
40075;BME280;26529;51.530;11.754;2023-03-14T04:04:11;97757.72;;;19.38;45.65
40075;BME280;26529;51.530;11.754;2023-03-14T04:06:37;97758.53;;;19.39;45.62
40075;BME280;26529;51.530;11.754;2023-03-14T04:09:03;97757.72;;;19.38;45.59
40075;BME280;26529;51.530;11.754;2023-03-14T04:11:47;97753.22;;;19.39;45.41
40075;BME280;26529;51.530;11.754;2023-03-14T04:14:18;97748.91;;;19.38;45.52
40075;BME280;26529;51.530;11.754;2023-03-14T04:16:44;97742.91;;;19.36;45.47
40075;BME280;26529;51.530;11.754;2023-03-14T04:19:13;97740.06;;;19.37;45.49
40075;BME280;26529;51.530;11.754;2023-03-14T04:21:39;97733.94;;;19.37;45.67
40075;BME280;26529;51.530;11.754;2023-03-14T04:24:12;97746.25;;;19.38;45.70
40075;BME280;26529;51.530;11.754;2023-03-14T04:26:39;97734.75;;;19.37;45.41
40075;BME280;26529;51.530;11.754;2023-03-14T04:29:07;97742.56;;;19.39;45.38
40075;BME280;26529;51.530;11.754;2023-03-14T04:31:32;97740.91;;;19.38;45.54
40075;BME280;26529;51.530;11.754;2023-03-14T04:33:58;97731.94;;;19.39;45.43
40075;BME280;26529;51.530;11.754;2023-03-14T04:36:37;97721.66;;;19.36;45.58
40075;BME280;26529;51.530;11.754;2023-03-14T04:39:07;97721.66;;;19.36;45.49
40075;BME280;26529;51.530;11.754;2023-03-14T04:41:36;97720.97;;;19.34;45.56
40075;BME280;26529;51.530;11.754;2023-03-14T04:44:02;97715.50;;;19.35;45.54
40075;BME280;26529;51.530;11.754;2023-03-14T04:46:28;97719.66;;;19.38;45.78
40075;BME280;26529;51.530;11.754;2023-03-14T04:48:54;97725.97;;;19.37;45.74
40075;BME280;26529;51.530;11.754;2023-03-14T04:51:21;97716.34;;;19.36;45.62
40075;BME280;26529;51.530;11.754;2023-03-14T04:53:48;97695.09;;;19.36;45.53
40075;BME280;26529;51.530;11.754;2023-03-14T04:56:14;97683.31;;;19.38;45.54
40075;BME280;26529;51.530;11.754;2023-03-14T04:58:42;97673.84;;;19.36;45.48
40075;BME280;26529;51.530;11.754;2023-03-14T05:01:09;97675.81;;;19.34;45.70
40075;BME280;26529;51.530;11.754;2023-03-14T05:04:04;97675.50;;;19.37;45.50
40075;BME280;26529;51.530;11.754;2023-03-14T05:06:55;97684.47;;;19.36;45.49
40075;BME280;26529;51.530;11.754;2023-03-14T05:09:39;97690.78;;;19.35;45.44
40075;BME280;26529;51.530;11.754;2023-03-14T05:12:23;97688.13;;;19.35;45.47
40075;BME280;26529;51.530;11.754;2023-03-14T05:15:08;97692.25;;;19.37;45.42
40075;BME280;26529;51.530;11.754;2023-03-14T05:17:41;97697.06;;;19.34;45.50
40075;BME280;26529;51.530;11.754;2023-03-14T05:20:21;97695.09;;;19.36;45.37
40075;BME280;26529;51.530;11.754;2023-03-14T05:23:11;97697.06;;;19.34;45.59
40075;BME280;26529;51.530;11.754;2023-03-14T05:26:03;97699.91;;;19.32;45.45
40075;BME280;26529;51.530;11.754;2023-03-14T05:28:46;97699.72;;;19.34;45.56
40075;BME280;26529;51.530;11.754;2023-03-14T05:31:21;97699.91;;;19.32;45.49
40075;BME280;26529;51.530;11.754;2023-03-14T05:33:49;97694.59;;;19.32;45.57
40075;BME280;26529;51.530;11.754;2023-03-14T05:36:31;97693.91;;;19.30;45.48
40075;BME280;26529;51.530;11.754;2023-03-14T05:39:13;97691.75;;;19.34;45.38
40075;BME280;26529;51.530;11.754;2023-03-14T05:42:11;97684.91;;;19.31;45.64
40075;BME280;26529;51.530;11.754;2023-03-14T05:44:59;97701.56;;;19.33;45.61
40075;BME280;26529;51.530;11.754;2023-03-14T05:47:48;97709.38;;;19.35;45.31
40075;BME280;26529;51.530;11.754;2023-03-14T05:50:31;97718.31;;;19.34;45.49
40075;BME280;26529;51.530;11.754;2023-03-14T05:53:19;97720.00;;;19.35;45.50
40075;BME280;26529;51.530;11.754;2023-03-14T05:56:10;97724.47;;;19.34;45.33
40075;BME280;26529;51.530;11.754;2023-03-14T05:58:54;97722.81;;;19.33;45.37
40075;BME280;26529;51.530;11.754;2023-03-14T06:01:26;97722.97;;;19.32;45.56
40075;BME280;26529;51.530;11.754;2023-03-14T06:04:04;97718.66;;;19.31;45.48
40075;BME280;26529;51.530;11.754;2023-03-14T06:06:30;97718.50;;;19.32;45.60
40075;BME280;26529;51.530;11.754;2023-03-14T06:08:58;97710.69;;;19.31;45.54
40075;BME280;26529;51.530;11.754;2023-03-14T06:11:24;97711.34;;;19.33;45.48
40075;BME280;26529;51.530;11.754;2023-03-14T06:13:50;97700.56;;;19.34;45.38
40075;BME280;26529;51.530;11.754;2023-03-14T06:16:16;97707.69;;;19.34;45.45
40075;BME280;26529;51.530;11.754;2023-03-14T06:18:41;97706.03;;;19.33;45.26
40075;BME280;26529;51.530;11.754;2023-03-14T06:21:08;97708.69;;;19.33;45.49
40075;BME280;26529;51.530;11.754;2023-03-14T06:23:34;97706.38;;;19.30;45.41
40075;BME280;26529;51.530;11.754;2023-03-14T06:26:01;97707.69;;;19.34;45.50
40075;BME280;26529;51.530;11.754;2023-03-14T06:28:27;97710.34;;;19.34;45.39
40075;BME280;26529;51.530;11.754;2023-03-14T06:30:58;97697.06;;;19.34;45.39
40075;BME280;26529;51.530;11.754;2023-03-14T06:33:24;97702.56;;;19.32;45.45
40075;BME280;26529;51.530;11.754;2023-03-14T06:35:50;97702.38;;;19.34;45.39
40075;BME280;26529;51.530;11.754;2023-03-14T06:38:15;97706.72;;;19.35;45.31
40075;BME280;26529;51.530;11.754;2023-03-14T06:40:41;97709.38;;;19.35;45.63
40075;BME280;26529;51.530;11.754;2023-03-14T06:43:11;97711.34;;;19.33;45.44
40075;BME280;26529;51.530;11.754;2023-03-14T06:45:39;97702.06;;;19.37;45.24
40075;BME280;26529;51.530;11.754;2023-03-14T06:48:05;97706.72;;;19.43;45.34
40075;BME280;26529;51.530;11.754;2023-03-14T06:50:38;97706.38;;;19.46;45.56
40075;BME280;26529;51.530;11.754;2023-03-14T06:53:04;97702.72;;;19.47;45.47
40075;BME280;26529;51.530;11.754;2023-03-14T06:55:30;97686.63;;;19.49;45.53
40075;BME280;26529;51.530;11.754;2023-03-14T06:57:56;97698.78;;;19.51;45.60
40075;BME280;26529;51.530;11.754;2023-03-14T07:00:22;97689.78;;;19.52;45.78
40075;BME280;26529;51.530;11.754;2023-03-14T07:02:51;97687.81;;;19.55;45.80
40075;BME280;26529;51.530;11.754;2023-03-14T07:05:23;97689.50;;;19.56;45.97
40075;BME280;26529;51.530;11.754;2023-03-14T07:07:49;97685.84;;;19.57;45.70
40075;BME280;26529;51.530;11.754;2023-03-14T07:10:16;97677.69;;;19.58;46.02
40075;BME280;26529;51.530;11.754;2023-03-14T07:12:42;97678.50;;;19.59;46.03
40075;BME280;26529;51.530;11.754;2023-03-14T07:15:08;97675.69;;;19.60;45.89
40075;BME280;26529;51.530;11.754;2023-03-14T07:17:34;97681.03;;;19.60;46.08
40075;BME280;26529;51.530;11.754;2023-03-14T07:19:59;97677.19;;;19.63;45.90
40075;BME280;26529;51.530;11.754;2023-03-14T07:22:26;97676.19;;;19.64;45.97
40075;BME280;26529;51.530;11.754;2023-03-14T07:24:51;97675.34;;;19.63;46.13
40075;BME280;26529;51.530;11.754;2023-03-14T07:27:18;97677.88;;;19.65;46.03
40075;BME280;26529;51.530;11.754;2023-03-14T07:29:45;97686.69;;;19.65;46.02
40075;BME280;26529;51.530;11.754;2023-03-14T07:32:10;97684.84;;;19.66;46.26
40075;BME280;26529;51.530;11.754;2023-03-14T07:34:43;97687.34;;;19.68;46.04
40075;BME280;26529;51.530;11.754;2023-03-14T07:37:09;97688.16;;;19.68;46.01
40075;BME280;26529;51.530;11.754;2023-03-14T07:39:35;97679.22;;;19.69;46.46
40075;BME280;26529;51.530;11.754;2023-03-14T07:42:07;97687.84;;;19.71;46.23
40075;BME280;26529;51.530;11.754;2023-03-14T07:44:52;97680.53;;;19.73;46.06
40075;BME280;26529;51.530;11.754;2023-03-14T07:47:17;97687.50;;;19.74;46.05
40075;BME280;26529;51.530;11.754;2023-03-14T07:49:43;97685.53;;;19.76;46.05
40075;BME280;26529;51.530;11.754;2023-03-14T07:52:08;97690.84;;;19.76;45.95
40075;BME280;26529;51.530;11.754;2023-03-14T07:54:34;97699.47;;;19.78;45.95
40075;BME280;26529;51.530;11.754;2023-03-14T07:56:59;97689.69;;;19.79;45.95
40075;BME280;26529;51.530;11.754;2023-03-14T07:59:26;97703.78;;;19.79;46.00
40075;BME280;26529;51.530;11.754;2023-03-14T08:01:52;97700.13;;;19.80;46.19
40075;BME280;26529;51.530;11.754;2023-03-14T08:04:18;97696.47;;;19.82;46.65
40075;BME280;26529;51.530;11.754;2023-03-14T08:06:43;97698.16;;;19.83;46.77
40075;BME280;26529;51.530;11.754;2023-03-14T08:09:09;97699.97;;;19.82;46.40
40075;BME280;26529;51.530;11.754;2023-03-14T08:11:34;97704.44;;;19.82;46.30
40075;BME280;26529;51.530;11.754;2023-03-14T08:14:00;97693.81;;;19.82;46.45
40075;BME280;26529;51.530;11.754;2023-03-14T08:16:25;97695.50;;;19.83;46.41
40075;BME280;26529;51.530;11.754;2023-03-14T08:18:51;97689.19;;;19.84;46.33
40075;BME280;26529;51.530;11.754;2023-03-14T08:21:16;97697.97;;;19.84;46.45
40075;BME280;26529;51.530;11.754;2023-03-14T08:23:42;97688.19;;;19.85;46.38
40075;BME280;26529;51.530;11.754;2023-03-14T08:26:07;97688.03;;;19.86;46.72
40075;BME280;26529;51.530;11.754;2023-03-14T08:28:33;97695.81;;;19.88;46.62
40075;BME280;26529;51.530;11.754;2023-03-14T08:30:59;97684.22;;;19.89;47.01
40075;BME280;26529;51.530;11.754;2023-03-14T08:33:26;97691.19;;;19.90;46.93
40075;BME280;26529;51.530;11.754;2023-03-14T08:35:56;97693.00;;;19.89;46.81
40075;BME280;26529;51.530;11.754;2023-03-14T08:38:23;97689.19;;;19.92;47.05
40075;BME280;26529;51.530;11.754;2023-03-14T08:40:48;97697.16;;;19.92;47.37
40075;BME280;26529;51.530;11.754;2023-03-14T08:43:15;97690.84;;;19.93;46.80
40075;BME280;26529;51.530;11.754;2023-03-14T08:45:40;97697.00;;;19.93;46.84
40075;BME280;26529;51.530;11.754;2023-03-14T08:48:06;97697.81;;;19.94;47.08
40075;BME280;26529;51.530;11.754;2023-03-14T08:50:31;97708.44;;;19.94;46.84
40075;BME280;26529;51.530;11.754;2023-03-14T08:52:57;97694.34;;;19.93;46.91
40075;BME280;26529;51.530;11.754;2023-03-14T08:55:25;97703.97;;;19.95;46.76
40075;BME280;26529;51.530;11.754;2023-03-14T08:57:53;97706.50;;;19.96;47.29
40075;BME280;26529;51.530;11.754;2023-03-14T09:00:19;97710.13;;;19.95;47.03
40075;BME280;26529;51.530;11.754;2023-03-14T09:02:44;97703.97;;;19.95;46.98
40075;BME280;26529;51.530;11.754;2023-03-14T09:05:11;97702.47;;;19.92;47.38
40075;BME280;26529;51.530;11.754;2023-03-14T09:07:37;97698.97;;;19.91;47.23
40075;BME280;26529;51.530;11.754;2023-03-14T09:10:03;97703.47;;;19.91;47.32
40075;BME280;26529;51.530;11.754;2023-03-14T09:12:28;97700.81;;;19.91;47.39
40075;BME280;26529;51.530;11.754;2023-03-14T09:14:54;97700.81;;;19.91;47.46
40075;BME280;26529;51.530;11.754;2023-03-14T09:17:19;97708.78;;;19.91;47.14
40075;BME280;26529;51.530;11.754;2023-03-14T09:19:45;97708.78;;;19.91;47.25
40075;BME280;26529;51.530;11.754;2023-03-14T09:22:10;97702.47;;;19.92;47.10
40075;BME280;26529;51.530;11.754;2023-03-14T09:24:36;97707.94;;;19.90;46.99
40075;BME280;26529;51.530;11.754;2023-03-14T09:27:01;97705.28;;;19.90;47.09
40075;BME280;26529;51.530;11.754;2023-03-14T09:29:27;97703.78;;;19.88;46.98
40075;BME280;26529;51.530;11.754;2023-03-14T09:31:52;97714.44;;;19.88;47.22
40075;BME280;26529;51.530;11.754;2023-03-14T09:34:18;97710.81;;;19.89;47.13
40075;BME280;26529;51.530;11.754;2023-03-14T09:36:44;97710.97;;;19.87;47.09
40075;BME280;26529;51.530;11.754;2023-03-14T09:39:11;97702.31;;;19.85;47.29
40075;BME280;26529;51.530;11.754;2023-03-14T09:41:43;97711.13;;;19.86;47.07
40075;BME280;26529;51.530;11.754;2023-03-14T09:46:46;97713.13;;;19.84;47.10
40075;BME280;26529;51.530;11.754;2023-03-14T09:49:20;97718.44;;;19.84;47.17
40075;BME280;26529;51.530;11.754;2023-03-14T09:51:49;97720.41;;;19.82;46.87
40075;BME280;26529;51.530;11.754;2023-03-14T09:54:30;97725.72;;;19.82;47.08
40075;BME280;26529;51.530;11.754;2023-03-14T09:56:56;97730.22;;;19.81;47.09
40075;BME280;26529;51.530;11.754;2023-03-14T09:59:22;97730.22;;;19.81;47.06
40075;BME280;26529;51.530;11.754;2023-03-14T10:01:47;97723.25;;;19.80;47.14
40075;BME280;26529;51.530;11.754;2023-03-14T10:04:15;97723.25;;;19.80;46.89
40075;BME280;26529;51.530;11.754;2023-03-14T10:06:42;97726.06;;;19.78;46.87
40075;BME280;26529;51.530;11.754;2023-03-14T10:09:23;97720.75;;;19.78;46.95
40075;BME280;26529;51.530;11.754;2023-03-14T10:11:59;97725.22;;;19.78;46.90
40075;BME280;26529;51.530;11.754;2023-03-14T10:14:36;97722.41;;;19.79;46.75
40075;BME280;26529;51.530;11.754;2023-03-14T10:17:10;97738.69;;;19.76;46.98
40075;BME280;26529;51.530;11.754;2023-03-14T10:19:37;97729.72;;;19.77;46.90
40075;BME280;26529;51.530;11.754;2023-03-14T10:22:16;97713.78;;;19.77;47.03
40075;BME280;26529;51.530;11.754;2023-03-14T10:24:46;97717.44;;;19.76;46.91
40075;BME280;26529;51.530;11.754;2023-03-14T10:27:27;97721.75;;;19.77;46.94
40075;BME280;26529;51.530;11.754;2023-03-14T10:29:58;97719.25;;;19.76;46.89
40075;BME280;26529;51.530;11.754;2023-03-14T10:32:33;97733.69;;;19.73;46.91
40075;BME280;26529;51.530;11.754;2023-03-14T10:37:55;97734.69;;;19.72;46.96
40075;BME280;26529;51.530;11.754;2023-03-14T10:40:28;97736.34;;;19.73;46.98
40075;BME280;26529;51.530;11.754;2023-03-14T10:42:55;97733.88;;;19.72;46.86
40075;BME280;26529;51.530;11.754;2023-03-14T10:45:38;97726.56;;;19.74;46.83
40075;BME280;26529;51.530;11.754;2023-03-14T10:48:24;97734.69;;;19.72;46.89
40075;BME280;26529;51.530;11.754;2023-03-14T10:53:22;97737.34;;;19.72;46.82
40075;BME280;26529;51.530;11.754;2023-03-14T10:55:47;97738.50;;;19.70;46.84
40075;BME280;26529;51.530;11.754;2023-03-14T10:58:25;97740.84;;;19.73;46.79
40075;BME280;26529;51.530;11.754;2023-03-14T11:03:43;97732.38;;;19.69;46.79
40075;BME280;26529;51.530;11.754;2023-03-14T11:06:36;97735.69;;;19.71;46.83
40075;BME280;26529;51.530;11.754;2023-03-14T11:09:21;97742.66;;;19.72;46.64
40075;BME280;26529;51.530;11.754;2023-03-14T11:11:49;97732.38;;;19.69;46.72
40075;BME280;26529;51.530;11.754;2023-03-14T11:14:30;97729.03;;;19.67;46.89
40075;BME280;26529;51.530;11.754;2023-03-14T11:17:27;97729.72;;;19.69;46.80
40075;BME280;26529;51.530;11.754;2023-03-14T11:22:48;97724.91;;;19.73;46.60
40075;BME280;26529;51.530;11.754;2023-03-14T11:25:23;97735.34;;;19.74;46.63
40075;BME280;26529;51.530;11.754;2023-03-14T11:27:56;97727.22;;;19.76;46.58
40075;BME280;26529;51.530;11.754;2023-03-14T11:31:08;97725.72;;;19.73;46.60
40075;BME280;26529;51.530;11.754;2023-03-14T11:33:39;97729.22;;;19.74;46.66
40075;BME280;26529;51.530;11.754;2023-03-14T11:36:20;97731.88;;;19.74;46.60
40075;BME280;26529;51.530;11.754;2023-03-14T11:38:52;97720.41;;;19.73;46.69
40075;BME280;26529;51.530;11.754;2023-03-14T11:41:23;97723.91;;;19.74;46.70
40075;BME280;26529;51.530;11.754;2023-03-14T11:43:54;97724.91;;;19.73;46.63
40075;BME280;26529;51.530;11.754;2023-03-14T11:46:33;97733.03;;;19.71;46.64
40075;BME280;26529;51.530;11.754;2023-03-14T11:51:46;97738.34;;;19.71;46.53
40075;BME280;26529;51.530;11.754;2023-03-14T11:54:26;97735.69;;;19.71;46.51
40075;BME280;26529;51.530;11.754;2023-03-14T11:56:58;97719.75;;;19.71;46.48
40075;BME280;26529;51.530;11.754;2023-03-14T11:59:41;97722.56;;;19.70;46.60
40075;BME280;26529;51.530;11.754;2023-03-14T12:02:40;97712.41;;;19.73;46.52
40075;BME280;26529;51.530;11.754;2023-03-14T12:10:41;97706.44;;;19.79;46.18
40075;BME280;26529;51.530;11.754;2023-03-14T12:13:09;97712.78;;;19.78;46.36
40075;BME280;26529;51.530;11.754;2023-03-14T12:15:39;97705.63;;;19.79;46.38
40075;BME280;26529;51.530;11.754;2023-03-14T12:20:54;97697.81;;;19.86;46.36
40075;BME280;26529;51.530;11.754;2023-03-14T12:23:21;97689.19;;;19.92;46.14
40075;BME280;26529;51.530;11.754;2023-03-14T12:25:47;97686.91;;;19.97;46.03
40075;BME280;26529;51.530;11.754;2023-03-14T12:28:21;97684.88;;;19.99;46.08
40075;BME280;26529;51.530;11.754;2023-03-14T12:30:47;97687.53;;;19.99;45.91
40075;BME280;26529;51.530;11.754;2023-03-14T12:33:21;97688.88;;;19.95;46.32
40075;BME280;26529;51.530;11.754;2023-03-14T12:35:57;97690.22;;;19.99;46.00
40075;BME280;26529;51.530;11.754;2023-03-14T12:43:39;97686.91;;;19.97;46.20
40075;BME280;26529;51.530;11.754;2023-03-14T12:46:15;97683.06;;;20.00;46.06
40075;BME280;26529;51.530;11.754;2023-03-14T12:48:46;97672.59;;;19.98;46.07
40075;BME280;26529;51.530;11.754;2023-03-14T12:51:20;97675.91;;;20.00;46.15
40075;BME280;26529;51.530;11.754;2023-03-14T12:54:27;97673.44;;;19.99;46.10
40075;BME280;26529;51.530;11.754;2023-03-14T12:59:56;97666.28;;;19.99;45.97
40075;BME280;26529;51.530;11.754;2023-03-14T13:02:28;97665.28;;;20.00;45.98
40075;BME280;26529;51.530;11.754;2023-03-14T13:10:24;97663.63;;;19.99;46.06
40075;BME280;26529;51.530;11.754;2023-03-14T13:13:14;97665.28;;;20.00;45.98
40075;BME280;26529;51.530;11.754;2023-03-14T13:15:43;97650.16;;;20.01;46.03
40075;BME280;26529;51.530;11.754;2023-03-14T13:18:12;97647.34;;;20.02;46.22
40075;BME280;26529;51.530;11.754;2023-03-14T13:20:44;97646.63;;;20.09;45.91
40075;BME280;26529;51.530;11.754;2023-03-14T13:23:22;97645.47;;;20.11;45.87
40075;BME280;26529;51.530;11.754;2023-03-14T13:25:48;97650.16;;;20.09;45.91
40075;BME280;26529;51.530;11.754;2023-03-14T13:28:14;97649.97;;;20.11;45.80
40075;BME280;26529;51.530;11.754;2023-03-14T13:30:43;97653.66;;;20.10;46.04
40075;BME280;26529;51.530;11.754;2023-03-14T13:33:27;97652.47;;;20.12;45.96
40075;BME280;26529;51.530;11.754;2023-03-14T13:35:58;97647.16;;;20.12;45.85
40075;BME280;26529;51.530;11.754;2023-03-14T13:38:28;97646.31;;;20.12;46.05
40075;BME280;26529;51.530;11.754;2023-03-14T13:41:06;97648.63;;;20.15;45.96
40075;BME280;26529;51.530;11.754;2023-03-14T13:43:35;97653.47;;;20.19;45.95
40075;BME280;26529;51.530;11.754;2023-03-14T13:46:06;97652.13;;;20.24;45.99
40075;BME280;26529;51.530;11.754;2023-03-14T13:48:35;97643.31;;;20.23;45.95
40075;BME280;26529;51.530;11.754;2023-03-14T13:51:10;97652.28;;;20.22;45.96